This is the latest recevied weather packets stored in our database for station/object K0QJ. If no packets are shown the sender has not sent any weather packets the latest 10 day(s).
| Time | Temp. | Humidity | Pressure | Rain* | Wind** | Luminosity | Snow |
|---|---|---|---|---|---|---|---|
| 1777657321 | 18.33° C | 35% | 1017.7 hPa | 0 mm | - | 761 W/m² | - |
| 1777657019 | 17.78° C | 36% | 1017.7 hPa | 0 mm | - | 788 W/m² | - |
| 1777656715 | 18.89° C | 34% | 1017.3 hPa | 0 mm | - | 839 W/m² | - |
| 1777656412 | 18.33° C | 34% | 1017.7 hPa | 0 mm | - | 816 W/m² | - |
| 1777656106 | 18.33° C | 34% | 1017.5 hPa | 0 mm | - | 806 W/m² | - |
| 1777655803 | 18.33° C | 34% | 1017.7 hPa | 0 mm | - | 801 W/m² | - |
| 1777655499 | 18.33° C | 32% | 1017.5 hPa | 0 mm | - | 836 W/m² | - |
| 1777655191 | 18.33° C | 37% | 1017.7 hPa | 0 mm | - | 828 W/m² | - |
| 1777654887 | 17.78° C | 38% | 1017.7 hPa | 0 mm | - | 813 W/m² | - |
| 1777654585 | 17.78° C | 37% | 1017.8 hPa | 0 mm | - | 812 W/m² | - |
| 1777654282 | 17.78° C | 39% | 1017.8 hPa | 0 mm | - | 800 W/m² | - |
| 1777653981 | 17.78° C | 39% | 1018 hPa | 0 mm | - | 821 W/m² | - |
| 1777653677 | 17.22° C | 36% | 1017.9 hPa | 0 mm | - | 832 W/m² | - |
| 1777653373 | 17.78° C | 34% | 1017.8 hPa | 0 mm | - | 829 W/m² | - |
| 1777653071 | 17.22° C | 36% | 1017.7 hPa | 0 mm | - | 829 W/m² | - |
| 1777652766 | 17.22° C | 36% | 1017.6 hPa | 0 mm | - | 809 W/m² | - |
| 1777652463 | 17.22° C | 37% | 1017.7 hPa | 0 mm | - | 783 W/m² | - |
| 1777652161 | 18.33° C | 38% | 1017.7 hPa | 0 mm | - | 785 W/m² | - |
| 1777651857 | 17.78° C | 41% | 1017.6 hPa | 0 mm | - | 766 W/m² | - |
| 1777651554 | 16.67° C | 40% | 1017.8 hPa | 0 mm | - | 730 W/m² | - |
| 1777651251 | 16.11° C | 41% | 1018 hPa | 0 mm | - | 717 W/m² | - |
| 1777650947 | 16.11° C | 39% | 1017.8 hPa | 0 mm | - | 710 W/m² | - |
| 1777650645 | 16.11° C | 40% | 1017.8 hPa | 0 mm | - | 707 W/m² | - |
| 1777650342 | 16.67° C | 39% | 1017.9 hPa | 0 mm | - | 725 W/m² | - |
| 1777650039 | 16.11° C | 41% | 1017.9 hPa | 0 mm | - | 710 W/m² | - |
* Rain latest hour (hover to see other rain measurements)
** Current wind speed in m/s (hover to see current wind gust speed)